Thunder radar more information blitzortung!


Radar de pluja more information rain snow radar


Visita la nostra xarxa de llocs de meteo:

Template documentation
and downloads

And another site



No particular awareness of the weather is required.    There are no Weather-warnings

Pagina Historial Weather Underground text

Diari Resum January 22, 2016 Unitats:  Mètric    Imperial   Tant
« Previous Dia
SegĂźent Dia »
Diari Setmana Mensual Anual Personalitzada
  Maxima: Minima: Media:
Temperatura: 13.8 °C 4.5 °C 11.7 °C
Punt de rosada: 7.9 °C 0.3 °C 6.5 °C
Humitat: 78 % 61 % 70 %
Wind Speed: 9.3 km/h 0.0 km/h 3.2 km/h
RĂ fegues de vent: 9.3 km/h - -
Vent:- - South
Pression baro: 1032.7 hPa 1026.0 hPa -
Precipitacions: 0.0 mm    
Historical Graphs
 
 
Dades de taula per January 22, 2016
Temps Temperatura Punt de rosada Pression baro Vent Wind Speed RĂ fegues de vent Humitat Rainfall Rate (Hourly)
00:03 4.5 °C 0.3 °C 1026.0 hPa WSW 1.9 km/h   74 % 0.0 mm
11:48 7.9 °C 3.3 °C 1030.0 hPa Calm   3.2 km/h 73 % 0.0 mm
11:53 8.6 °C 3.8 °C 1030.0 hPa NNE 3.7 km/h 3.7 km/h 72 % 0.0 mm
11:58 8.7 °C 3.7 °C 1030.0 hPa ENE 3.9 km/h 3.9 km/h 71 % 0.0 mm
12:03 9.1 °C 4.1 °C 1030.0 hPa NE 4.2 km/h 4.2 km/h 71 % 0.0 mm
12:08 9.1 °C 3.7 °C 1030.0 hPa ENE 5.6 km/h 5.6 km/h 69 % 0.0 mm
12:13 9.6 °C 4.2 °C 1030.0 hPa ESE 6.1 km/h 6.1 km/h 69 % 0.0 mm
12:18 9.7 °C 4.3 °C 1030.0 hPa ESE 4.2 km/h 4.2 km/h 69 % 0.0 mm
12:28 10.0 °C 4.3 °C 1029.0 hPa ESE 5.6 km/h 5.6 km/h 68 % 0.0 mm
12:33 10.0 °C 4.2 °C 1029.0 hPa ENE 3.7 km/h 3.7 km/h 67 % 0.0 mm
12:38 10.1 °C 4.2 °C 1030.0 hPa North 5.6 km/h 5.6 km/h 67 % 0.0 mm
12:43 10.3 °C 4.2 °C 1030.0 hPa NE 3.7 km/h 3.7 km/h 66 % 0.0 mm
12:48 10.5 °C 4.4 °C 1030.0 hPa NNE 3.7 km/h 3.7 km/h 66 % 0.0 mm
12:53 10.7 °C 4.6 °C 1030.0 hPa NNE 3.2 km/h 3.2 km/h 66 % 0.0 mm
12:58 10.8 °C 4.5 °C 1030.0 hPa ENE 5.6 km/h 5.6 km/h 65 % 0.0 mm
13:03 11.0 °C 4.7 °C 1030.0 hPa ENE 3.7 km/h 3.7 km/h 65 % 0.0 mm
13:08 11.2 °C 4.8 °C 1030.0 hPa ENE 3.7 km/h 3.7 km/h 65 % 0.0 mm
13:13 11.6 °C 5.2 °C 1030.0 hPa NNE 3.7 km/h 3.7 km/h 65 % 0.0 mm
13:18 11.7 °C 5.3 °C 1030.0 hPa NNE 7.4 km/h 7.4 km/h 65 % 0.0 mm
13:23 11.9 °C 5.3 °C 1030.0 hPa NE 3.7 km/h 3.7 km/h 64 % 0.0 mm
13:28 12.2 °C 5.6 °C 1030.0 hPa ENE 5.3 km/h 5.3 km/h 64 % 0.0 mm
13:33 12.3 °C 5.7 °C 1030.0 hPa NNE 3.7 km/h 3.7 km/h 64 % 0.0 mm
13:38 12.6 °C 5.9 °C 1029.0 hPa NNW 1.9 km/h 1.9 km/h 64 % 0.0 mm
13:43 12.6 °C 5.9 °C 1029.0 hPa NW 3.7 km/h 3.7 km/h 64 % 0.0 mm
13:53 13.1 °C 6.4 °C 1028.0 hPa South 1.9 km/h   64 % 0.0 mm
13:58 13.5 °C 7.3 °C 1028.0 hPa SW 5.6 km/h 5.6 km/h 66 % 0.0 mm
14:03 13.6 °C 7.4 °C 1028.0 hPa WSW 7.4 km/h 7.4 km/h 66 % 0.0 mm
14:08 13.8 °C 7.6 °C 1028.0 hPa SW 9.3 km/h 9.3 km/h 66 % 0.0 mm
14:13 13.8 °C 7.3 °C 1028.0 hPa SW 5.6 km/h 5.6 km/h 65 % 0.0 mm
14:18 13.8 °C 7.3 °C 1028.0 hPa SW 6.1 km/h 6.1 km/h 65 % 0.0 mm
14:28 13.4 °C 6.5 °C 1029.0 hPa ESE 5.6 km/h 5.6 km/h 63 % 0.0 mm
14:33 13.4 °C 6.5 °C 1029.0 hPa East 5.6 km/h 5.6 km/h 63 % 0.0 mm
14:38 13.4 °C 6.5 °C 1028.0 hPa East 3.7 km/h 3.9 km/h 63 % 0.0 mm
14:43 13.5 °C 6.6 °C 1028.0 hPa ESE 5.8 km/h 5.8 km/h 63 % 0.0 mm
14:48 13.6 °C 6.9 °C 1028.0 hPa ESE 5.6 km/h 5.6 km/h 64 % 0.0 mm
14:53 13.7 °C 6.8 °C 1028.0 hPa East 5.6 km/h 5.6 km/h 63 % 0.0 mm
14:58 13.7 °C 6.6 °C 1028.0 hPa NE 5.6 km/h 5.6 km/h 62 % 0.0 mm
15:03 13.7 °C 6.6 °C 1028.0 hPa ENE 3.7 km/h 3.7 km/h 62 % 0.0 mm
15:08 13.8 °C 6.7 °C 1029.0 hPa Calm     62 % 0.0 mm
15:13 13.8 °C 6.4 °C 1029.0 hPa ENE 3.7 km/h 3.7 km/h 61 % 0.0 mm
15:18 13.6 °C 6.2 °C 1029.0 hPa East 5.6 km/h 5.6 km/h 61 % 0.0 mm
15:23 13.5 °C 6.1 °C 1029.0 hPa NE 7.4 km/h 7.4 km/h 61 % 0.0 mm
15:28 13.4 °C 6.0 °C 1029.0 hPa NNE 7.4 km/h 7.4 km/h 61 % 0.0 mm
15:33 13.4 °C 6.0 °C 1029.0 hPa NE 5.6 km/h 5.6 km/h 61 % 0.0 mm
15:38 13.4 °C 6.0 °C 1029.0 hPa NE 2.3 km/h   61 % 0.0 mm
15:53 13.6 °C 6.4 °C 1029.0 hPa NE 3.2 km/h 3.2 km/h 62 % 0.0 mm
15:58 13.6 °C 6.4 °C 1029.0 hPa ESE 1.9 km/h   62 % 0.0 mm
16:03 13.6 °C 6.4 °C 1029.0 hPa Calm     62 % 0.0 mm
16:08 13.6 °C 6.4 °C 1030.0 hPa ENE 3.7 km/h 3.7 km/h 62 % 0.0 mm
16:13 13.6 °C 6.7 °C 1030.0 hPa WSW 3.7 km/h 4.7 km/h 63 % 0.0 mm
16:18 13.7 °C 7.0 °C 1030.0 hPa West 3.9 km/h 4.2 km/h 64 % 0.0 mm
16:23 13.6 °C 7.2 °C 1030.0 hPa SSW 7.4 km/h 7.4 km/h 65 % 0.0 mm
16:28 13.6 °C 7.4 °C 1030.0 hPa WSW 5.6 km/h 5.6 km/h 66 % 0.0 mm
16:33 13.5 °C 7.5 °C 1030.0 hPa West 7.4 km/h 7.4 km/h 67 % 0.0 mm
16:38 13.5 °C 7.5 °C 1030.0 hPa WSW 4.2 km/h 4.2 km/h 67 % 0.0 mm
16:43 13.5 °C 7.5 °C 1030.0 hPa SW 5.6 km/h 5.6 km/h 67 % 0.0 mm
16:48 13.4 °C 7.4 °C 1030.0 hPa WSW 6.9 km/h 6.9 km/h 67 % 0.0 mm
16:58 13.2 °C 7.4 °C 1030.0 hPa WSW 7.4 km/h 7.4 km/h 68 % 0.0 mm
17:03 13.2 °C 7.6 °C 1030.0 hPa WSW 7.4 km/h 7.4 km/h 69 % 0.0 mm
17:08 13.1 °C 7.6 °C 1030.7 hPa WSW 3.7 km/h 3.7 km/h 69 % 0.0 mm
17:13 13.1 °C 7.6 °C 1030.7 hPa SW 1.9 km/h 1.9 km/h 69 % 0.0 mm
17:18 13.1 °C 7.6 °C 1030.7 hPa WSW 1.9 km/h 2.3 km/h 69 % 0.0 mm
17:23 13.0 °C 7.4 °C 1030.0 hPa WSW 3.9 km/h 3.9 km/h 69 % 0.0 mm
17:28 13.0 °C 7.7 °C 1030.0 hPa WSW 3.7 km/h 3.7 km/h 70 % 0.0 mm
17:33 12.9 °C 7.6 °C 1030.0 hPa SW 9.3 km/h 9.3 km/h 70 % 0.0 mm
17:43 12.8 °C 7.7 °C 1030.0 hPa WSW 3.9 km/h 3.9 km/h 71 % 0.0 mm
17:48 12.8 °C 7.7 °C 1030.0 hPa SW 3.7 km/h 3.7 km/h 71 % 0.0 mm
17:53 12.7 °C 7.8 °C 1030.0 hPa SSW 3.7 km/h 3.7 km/h 72 % 0.0 mm
17:58 12.7 °C 7.8 °C 1030.0 hPa SW 3.7 km/h 3.7 km/h 72 % 0.0 mm
18:03 12.7 °C 7.8 °C 1030.0 hPa SW 1.9 km/h 2.3 km/h 72 % 0.0 mm
18:08 12.6 °C 7.7 °C 1030.0 hPa WSW 3.7 km/h 3.7 km/h 72 % 0.0 mm
18:13 12.6 °C 7.9 °C 1030.0 hPa SW 3.2 km/h 3.2 km/h 73 % 0.0 mm
18:18 12.5 °C 7.8 °C 1030.0 hPa WSW 3.7 km/h 3.7 km/h 73 % 0.0 mm
18:23 12.4 °C 7.7 °C 1030.7 hPa SW 3.7 km/h 3.7 km/h 73 % 0.0 mm
18:28 12.4 °C 7.7 °C 1030.7 hPa WSW 3.7 km/h 3.7 km/h 73 % 0.0 mm
18:33 12.3 °C 7.8 °C 1030.7 hPa WSW 3.7 km/h 3.7 km/h 74 % 0.0 mm
18:39 12.3 °C 7.8 °C 1030.7 hPa SW 2.6 km/h 2.6 km/h 74 % 0.0 mm
18:44 12.3 °C 7.8 °C 1030.7 hPa WSW 3.7 km/h 3.7 km/h 74 % 0.0 mm
18:49 12.3 °C 7.8 °C 1030.7 hPa SW 3.7 km/h 3.7 km/h 74 % 0.0 mm
18:54 12.2 °C 7.7 °C 1030.7 hPa SW 3.7 km/h 3.7 km/h 74 % 0.0 mm
18:59 12.2 °C 7.9 °C 1030.7 hPa SW 3.7 km/h 3.7 km/h 75 % 0.0 mm
19:04 12.1 °C 7.8 °C 1030.7 hPa Calm     75 % 0.0 mm
19:09 12.1 °C 7.8 °C 1030.7 hPa Calm     75 % 0.0 mm
19:14 12.0 °C 7.9 °C 1030.7 hPa SW 1.9 km/h   76 % 0.0 mm
19:19 11.9 °C 7.6 °C 1030.7 hPa Calm     75 % 0.0 mm
19:24 11.7 °C 7.6 °C 1030.7 hPa Calm     76 % 0.0 mm
19:29 11.6 °C 7.5 °C 1030.7 hPa Calm     76 % 0.0 mm
19:34 11.5 °C 7.4 °C 1030.7 hPa Calm     76 % 0.0 mm
19:39 11.4 °C 7.3 °C 1032.1 hPa Calm     76 % 0.0 mm
19:44 11.3 °C 7.2 °C 1032.1 hPa Calm     76 % 0.0 mm
19:49 11.3 °C 7.2 °C 1032.1 hPa Calm     76 % 0.0 mm
19:54 11.2 °C 7.1 °C 1032.1 hPa Calm     76 % 0.0 mm
19:59 11.3 °C 7.4 °C 1032.1 hPa Calm     77 % 0.0 mm
20:04 11.3 °C 7.2 °C 1032.1 hPa SW 3.7 km/h 3.7 km/h 76 % 0.0 mm
20:09 11.3 °C 7.2 °C 1032.1 hPa Calm     76 % 0.0 mm
20:10 11.3 °C 7.2 °C 1032.1 hPa Calm   1.6 km/h 76 % 0.0 mm
20:11 11.3 °C 7.4 °C 1032.1 hPa Calm     77 % 0.0 mm
20:12 11.3 °C 7.4 °C 1032.1 hPa Calm     77 % 0.0 mm
20:17 11.3 °C 7.2 °C 1032.1 hPa SW 1.9 km/h 2.3 km/h 76 % 0.0 mm
20:30 11.1 °C 7.0 °C 1030.7 hPa WSW 3.7 km/h 3.7 km/h 76 % 0.0 mm
20:35 11.2 °C 7.1 °C 1032.1 hPa WSW 3.7 km/h 3.7 km/h 76 % 0.0 mm
20:40 11.1 °C 7.2 °C 1032.1 hPa SW 3.7 km/h 3.7 km/h 77 % 0.0 mm
20:45 11.0 °C 7.1 °C 1032.1 hPa Calm     77 % 0.0 mm
20:50 11.0 °C 7.1 °C 1032.1 hPa Calm     77 % 0.0 mm
20:55 10.9 °C 7.0 °C 1032.1 hPa Calm     77 % 0.0 mm
21:00 10.9 °C 7.2 °C 1032.1 hPa Calm     78 % 0.0 mm
21:05 10.9 °C 7.2 °C 1030.7 hPa Calm     78 % 0.0 mm
21:10 10.9 °C 7.0 °C 1030.7 hPa NNE 1.9 km/h   77 % 0.0 mm
21:15 10.8 °C 6.7 °C 1030.7 hPa Calm     76 % 0.0 mm
21:20 10.8 °C 6.6 °C 1030.7 hPa NNW 3.7 km/h 3.7 km/h 75 % 0.0 mm
21:25 10.9 °C 6.4 °C 1030.7 hPa NW 1.9 km/h 1.9 km/h 74 % 0.0 mm
21:30 10.8 °C 6.2 °C 1030.7 hPa Calm     73 % 0.0 mm
21:35 10.7 °C 6.3 °C 1030.7 hPa WNW 3.7 km/h 3.7 km/h 74 % 0.0 mm
21:40 10.6 °C 6.3 °C 1030.7 hPa WNW 1.9 km/h   75 % 0.0 mm
21:45 10.5 °C 6.3 °C 1030.7 hPa Calm     75 % 0.0 mm
21:50 10.4 °C 6.2 °C 1030.7 hPa NE 3.7 km/h 3.7 km/h 75 % 0.0 mm
21:55 10.3 °C 6.1 °C 1030.7 hPa NE 1.9 km/h   75 % 0.0 mm
22:00 10.3 °C 6.1 °C 1030.7 hPa NE 3.7 km/h 3.7 km/h 75 % 0.0 mm
22:05 10.2 °C 5.9 °C 1032.1 hPa WSW 3.7 km/h 3.7 km/h 75 % 0.0 mm
22:11 10.1 °C 5.9 °C 1032.1 hPa WSW 3.9 km/h 3.9 km/h 75 % 0.0 mm
22:16 10.0 °C 5.8 °C 1032.1 hPa WSW 3.7 km/h 3.7 km/h 75 % 0.0 mm
22:21 10.0 °C 5.8 °C 1032.1 hPa WSW 1.4 km/h   75 % 0.0 mm
22:26 10.0 °C 5.9 °C 1032.1 hPa WSW 1.9 km/h   76 % 0.0 mm
22:31 10.0 °C 5.9 °C 1032.1 hPa WSW 2.3 km/h   76 % 0.0 mm
22:41 10.1 °C 5.7 °C 1032.1 hPa Calm     74 % 0.0 mm
22:46 10.2 °C 5.6 °C 1032.1 hPa West 1.9 km/h   73 % 0.0 mm
22:51 10.1 °C 5.7 °C 1032.7 hPa WSW 3.2 km/h 3.2 km/h 74 % 0.0 mm
22:56 9.7 °C 5.3 °C 1032.7 hPa SW 3.7 km/h 3.7 km/h 74 % 0.0 mm
23:01 9.7 °C 5.3 °C 1032.7 hPa SW 3.7 km/h 3.7 km/h 74 % 0.0 mm
23:06 9.7 °C 5.3 °C 1032.7 hPa Calm     74 % 0.0 mm
23:11 9.7 °C 5.3 °C 1032.7 hPa Calm     74 % 0.0 mm
23:16 9.7 °C 5.3 °C 1032.7 hPa Calm     74 % 0.0 mm
Meteo Sesrovires
Elogis d' Weather Underground - 3.25 mb

Guio original per  Jim McMurry - jmcmurry@mwt.net Adaptat per a la plantilla per  Wim van der Kuil - Leuven-Template.eu

Trobareu la nostra informacio del temps tambe a:

Weather Underground

AWEKAS